createdAt,value
2018-08-03T00:01:47.990Z,22.51
2018-08-03T00:04:16.332Z,22.57
2018-08-03T00:06:44.692Z,22.58
2018-08-03T00:09:13.037Z,22.56
2018-08-03T00:11:41.451Z,22.57
2018-08-03T00:14:09.820Z,22.53
2018-08-03T00:16:38.165Z,22.46
2018-08-03T00:19:06.532Z,22.54
2018-08-03T00:21:35.081Z,22.44
2018-08-03T00:24:03.487Z,22.20
2018-08-03T00:26:31.872Z,22.20
2018-08-03T00:29:00.270Z,22.16
2018-08-03T00:31:28.698Z,22.15
2018-08-03T00:33:57.030Z,22.15
2018-08-03T00:36:25.362Z,22.11
2018-08-03T00:38:53.667Z,22.04
2018-08-03T00:41:22.021Z,22.09
2018-08-03T00:43:50.670Z,22.12
2018-08-03T00:46:19.103Z,22.12
2018-08-03T00:48:47.483Z,22.12
2018-08-03T00:51:15.892Z,22.19
2018-08-03T00:53:44.240Z,22.15
2018-08-03T00:56:12.604Z,22.09
2018-08-03T00:58:40.994Z,22.11
2018-08-03T01:01:09.347Z,22.10
2018-08-03T01:03:37.735Z,22.05
2018-08-03T01:06:06.112Z,21.98
2018-08-03T01:08:34.506Z,21.94
2018-08-03T01:11:03.018Z,21.90
2018-08-03T01:13:31.394Z,21.86
2018-08-03T01:16:00.389Z,21.88
2018-08-03T01:18:28.727Z,21.89
2018-08-03T01:20:57.093Z,21.89
2018-08-03T01:23:26.979Z,21.82
2018-08-03T01:25:55.358Z,21.79
2018-08-03T01:28:23.770Z,21.79
2018-08-03T01:30:52.148Z,21.76
2018-08-03T01:33:20.852Z,21.74
2018-08-03T01:35:49.190Z,21.73
2018-08-03T01:38:17.582Z,21.69
2018-08-03T01:40:45.916Z,21.65
2018-08-03T01:43:14.297Z,21.68
2018-08-03T01:45:42.647Z,21.65
2018-08-03T01:48:11.004Z,21.62
2018-08-03T01:50:40.378Z,21.59
2018-08-03T01:53:08.740Z,21.62
2018-08-03T01:55:37.141Z,21.63
2018-08-03T01:58:05.758Z,21.55
2018-08-03T02:00:34.300Z,21.55
2018-08-03T02:03:02.660Z,21.59
2018-08-03T02:05:31.074Z,21.53
2018-08-03T02:07:59.433Z,21.55
2018-08-03T02:10:27.790Z,21.56
2018-08-03T02:12:56.120Z,21.53
2018-08-03T02:15:24.467Z,21.49
2018-08-03T02:17:52.803Z,21.44
2018-08-03T02:20:21.693Z,21.38
2018-08-03T02:22:50.191Z,21.35
2018-08-03T02:25:18.514Z,21.36
2018-08-03T02:27:46.867Z,21.31
2018-08-03T02:30:15.248Z,21.36
2018-08-03T02:32:43.618Z,21.33
2018-08-03T02:35:11.920Z,21.30
2018-08-03T02:37:40.262Z,21.27
2018-08-03T02:40:08.679Z,21.26
2018-08-03T02:42:37.031Z,21.26
2018-08-03T02:45:05.490Z,21.22
2018-08-03T02:47:33.811Z,21.21
2018-08-03T02:50:02.159Z,21.13
2018-08-03T02:52:30.893Z,21.13
2018-08-03T02:55:03.294Z,21.12
2018-08-03T02:57:31.688Z,21.07
2018-08-03T03:00:00.072Z,21.02
2018-08-03T03:02:28.748Z,20.94
2018-08-03T03:04:57.648Z,20.81
2018-08-03T03:07:26.160Z,20.74
2018-08-03T03:09:54.456Z,20.71
2018-08-03T03:12:22.784Z,20.56
2018-08-03T03:14:51.142Z,20.45
2018-08-03T03:17:19.956Z,20.39
2018-08-03T03:19:48.336Z,20.43
2018-08-03T03:22:16.679Z,20.37
2018-08-03T03:24:45.016Z,20.42
2018-08-03T03:27:15.367Z,20.49
2018-08-03T03:29:43.741Z,20.51
2018-08-03T03:32:12.172Z,20.52
2018-08-03T03:34:40.550Z,20.46
2018-08-03T03:37:08.964Z,20.48
2018-08-03T03:39:37.366Z,20.55
2018-08-03T03:42:05.806Z,20.54
2018-08-03T03:44:34.138Z,20.50
2018-08-03T03:47:02.574Z,20.49
2018-08-03T03:49:30.974Z,20.47
2018-08-03T03:51:59.407Z,20.41
2018-08-03T03:54:27.772Z,20.39
2018-08-03T03:56:56.195Z,20.48
2018-08-03T03:59:24.628Z,20.54
2018-08-03T04:01:52.991Z,20.54
2018-08-03T04:04:21.405Z,20.52
2018-08-03T04:06:49.796Z,20.56
2018-08-03T04:09:18.189Z,20.49
2018-08-03T04:11:46.886Z,20.57
2018-08-03T04:14:15.283Z,20.51
2018-08-03T04:16:43.681Z,20.52
2018-08-03T04:19:12.110Z,20.58
2018-08-03T04:21:40.574Z,20.59
2018-08-03T04:24:08.985Z,20.53
2018-08-03T04:26:37.357Z,20.60
2018-08-03T04:29:05.768Z,20.52
2018-08-03T04:31:34.146Z,20.58
2018-08-03T04:34:02.467Z,20.57
2018-08-03T04:36:30.822Z,20.61
2018-08-03T04:38:59.180Z,20.59
2018-08-03T04:41:28.535Z,20.63
2018-08-03T04:43:58.547Z,20.65
2018-08-03T04:46:26.919Z,20.68
2018-08-03T04:48:55.221Z,20.69
2018-08-03T04:51:23.540Z,20.75
2018-08-03T04:53:51.900Z,20.76
2018-08-03T04:56:20.275Z,20.80
2018-08-03T04:58:48.569Z,20.86
2018-08-03T05:01:16.980Z,20.89
2018-08-03T05:03:45.357Z,20.92
2018-08-03T05:06:13.723Z,20.95
2018-08-03T05:08:42.107Z,21.00
2018-08-03T05:11:10.477Z,21.02
2018-08-03T05:13:38.828Z,21.08
2018-08-03T05:16:07.189Z,21.12
2018-08-03T05:18:35.531Z,21.19
2018-08-03T05:21:03.911Z,21.24
2018-08-03T05:23:32.296Z,21.29
2018-08-03T05:26:00.694Z,21.33
2018-08-03T05:28:29.015Z,21.43
2018-08-03T05:30:57.414Z,21.48
2018-08-03T05:33:25.772Z,21.55
2018-08-03T05:35:54.562Z,21.71
2018-08-03T05:38:22.945Z,21.73
2018-08-03T05:40:51.288Z,21.81
2018-08-03T05:43:20.017Z,22.00
2018-08-03T05:45:48.519Z,22.10
2018-08-03T05:48:16.874Z,22.21
2018-08-03T05:50:45.249Z,22.37
2018-08-03T05:53:13.534Z,22.57
2018-08-03T05:55:41.916Z,22.63
2018-08-03T05:58:10.271Z,22.72
2018-08-03T06:00:38.626Z,22.84
2018-08-03T06:03:06.985Z,23.05
2018-08-03T06:05:35.440Z,23.57
2018-08-03T06:08:03.877Z,24.20
2018-08-03T06:10:32.250Z,24.87
2018-08-03T06:13:00.627Z,24.59
2018-08-03T06:15:29.034Z,24.97
2018-08-03T06:17:57.380Z,25.68
2018-08-03T06:20:25.787Z,25.98
2018-08-03T06:22:54.177Z,26.26
2018-08-03T06:25:22.556Z,26.91
2018-08-03T06:27:50.906Z,27.55
2018-08-03T06:30:20.044Z,28.02
2018-08-03T06:32:48.452Z,28.38
2018-08-03T06:35:16.861Z,27.93
2018-08-03T06:37:45.219Z,26.83
2018-08-03T06:40:13.696Z,27.32
2018-08-03T06:42:42.107Z,27.40
2018-08-03T06:45:10.498Z,27.21
2018-08-03T06:47:38.881Z,27.36
2018-08-03T06:50:07.352Z,28.26
2018-08-03T06:52:35.682Z,27.94
2018-08-03T06:55:04.068Z,28.73
2018-08-03T06:57:32.465Z,28.11
2018-08-03T07:00:00.808Z,28.43
2018-08-03T07:02:29.183Z,28.06
2018-08-03T07:04:57.599Z,27.49
2018-08-03T07:07:26.033Z,27.85
2018-08-03T07:09:54.337Z,27.82
2018-08-03T07:12:22.714Z,28.44
2018-08-03T07:14:51.188Z,28.83
2018-08-03T07:17:19.500Z,28.60
2018-08-03T07:19:47.856Z,28.91
2018-08-03T07:22:16.302Z,29.36
2018-08-03T07:24:45.138Z,30.10
2018-08-03T07:27:13.479Z,30.40
2018-08-03T07:29:42.536Z,29.74
2018-08-03T07:32:10.915Z,29.68
2018-08-03T07:34:39.287Z,29.04
2018-08-03T07:37:08.339Z,29.14
2018-08-03T07:39:36.702Z,29.29
2018-08-03T07:42:05.091Z,29.06
2018-08-03T07:44:33.418Z,29.08
2018-08-03T07:47:01.823Z,29.00
2018-08-03T07:49:30.474Z,29.17
2018-08-03T07:51:58.884Z,29.18
2018-08-03T07:54:27.218Z,28.76
2018-08-03T07:56:55.592Z,29.05
2018-08-03T07:59:23.939Z,29.20
2018-08-03T08:01:52.343Z,28.97
2018-08-03T08:04:21.134Z,28.93
2018-08-03T08:06:49.539Z,29.25
2018-08-03T08:09:17.914Z,29.05
2018-08-03T08:11:46.281Z,28.68
2018-08-03T08:14:15.372Z,29.03
2018-08-03T08:16:43.739Z,29.38
2018-08-03T08:19:12.097Z,29.21
2018-08-03T08:21:40.524Z,29.33
2018-08-03T08:24:08.910Z,29.29
2018-08-03T08:26:37.300Z,29.70
2018-08-03T08:29:05.925Z,29.41
2018-08-03T08:31:34.420Z,29.28
2018-08-03T08:34:02.769Z,29.15
2018-08-03T08:36:31.172Z,28.99
2018-08-03T08:38:59.516Z,29.12
2018-08-03T08:41:27.959Z,28.82
2018-08-03T08:43:56.548Z,28.68
2018-08-03T08:46:24.733Z,28.79
2018-08-03T08:48:53.188Z,28.99
2018-08-03T08:51:21.512Z,29.03
2018-08-03T08:53:49.896Z,29.02
2018-08-03T08:56:18.367Z,28.93
2018-08-03T08:58:46.772Z,28.98
2018-08-03T09:01:15.210Z,29.10
2018-08-03T09:03:43.560Z,29.06
2018-08-03T09:06:11.947Z,28.91
2018-08-03T09:08:40.313Z,29.16
2018-08-03T09:11:09.333Z,29.30
2018-08-03T09:13:37.797Z,29.46
2018-08-03T09:16:07.336Z,29.57
2018-08-03T09:18:35.766Z,29.55
2018-08-03T09:21:04.105Z,29.74
2018-08-03T09:23:33.474Z,29.76
2018-08-03T09:26:01.904Z,29.46
2018-08-03T09:28:30.278Z,29.74
2018-08-03T09:30:58.746Z,29.72
2018-08-03T09:33:27.154Z,29.89
2018-08-03T09:35:55.584Z,29.56
2018-08-03T09:38:23.974Z,30.15
2018-08-03T09:40:52.440Z,29.93
2018-08-03T09:43:20.840Z,30.10
2018-08-03T09:45:49.273Z,30.41
2018-08-03T09:48:17.693Z,30.45
2018-08-03T09:50:46.063Z,30.38
2018-08-03T09:53:14.416Z,30.28
2018-08-03T09:55:43.670Z,30.17
2018-08-03T09:58:12.017Z,30.12
2018-08-03T10:00:45.754Z,30.28
2018-08-03T10:03:14.076Z,30.35
2018-08-03T10:09:20.085Z,30.61
2018-08-03T10:11:50.503Z,30.73
2018-08-03T10:14:18.918Z,30.62
2018-08-03T10:16:47.292Z,30.42
2018-08-03T10:19:15.692Z,30.46
2018-08-03T10:21:44.053Z,30.47
2018-08-03T10:24:12.549Z,30.71
2018-08-03T10:26:40.928Z,30.65
2018-08-03T10:29:09.308Z,30.88
2018-08-03T10:31:37.662Z,30.96
2018-08-03T10:34:06.038Z,30.60
2018-08-03T10:36:34.505Z,30.66
2018-08-03T10:39:02.955Z,30.88
2018-08-03T10:41:31.334Z,30.76
2018-08-03T10:43:59.716Z,30.51
2018-08-03T10:46:28.149Z,30.47
2018-08-03T10:48:56.552Z,30.75
2018-08-03T10:51:24.963Z,30.49
2018-08-03T10:53:53.415Z,30.96
2018-08-03T10:56:21.918Z,30.96
2018-08-03T10:58:50.258Z,31.01
2018-08-03T11:01:18.627Z,31.13
2018-08-03T11:03:47.076Z,31.41
2018-08-03T11:06:15.752Z,31.43
2018-08-03T11:08:46.943Z,31.38
2018-08-03T11:11:15.692Z,31.38
2018-08-03T11:13:44.550Z,30.88
2018-08-03T11:16:13.275Z,31.20
2018-08-03T11:18:41.610Z,31.17
2018-08-03T11:21:10.305Z,31.11
2018-08-03T11:23:38.730Z,31.05
2018-08-03T11:26:07.258Z,31.16
2018-08-03T11:28:36.577Z,31.07
2018-08-03T11:31:04.936Z,31.21
2018-08-03T11:33:33.329Z,31.26
2018-08-03T11:36:01.722Z,31.31
2018-08-03T11:38:30.062Z,31.21
2018-08-03T11:40:58.631Z,31.36
2018-08-03T11:43:27.194Z,31.41
2018-08-03T11:45:55.757Z,31.38
2018-08-03T11:48:24.107Z,31.34
2018-08-03T11:50:52.484Z,31.43
2018-08-03T11:53:21.268Z,31.55
2018-08-03T11:55:49.757Z,31.56
2018-08-03T11:58:22.487Z,31.47
2018-08-03T12:00:50.831Z,31.54
2018-08-03T12:03:19.311Z,31.58
2018-08-03T12:05:48.371Z,31.68
2018-08-03T12:08:16.753Z,31.76
2018-08-03T12:10:45.475Z,31.77
2018-08-03T12:13:13.814Z,31.46
2018-08-03T12:15:42.285Z,31.55
2018-08-03T12:18:13.850Z,31.59
2018-08-03T12:20:43.456Z,31.64
2018-08-03T12:23:11.868Z,31.70
2018-08-03T12:25:41.280Z,31.34
2018-08-03T12:28:10.159Z,31.21
2018-08-03T12:30:38.685Z,31.36
2018-08-03T12:33:07.054Z,31.44
2018-08-03T12:35:35.659Z,31.52
2018-08-03T12:38:04.163Z,31.47
2018-08-03T12:40:32.544Z,31.46
2018-08-03T12:43:00.899Z,31.39
2018-08-03T12:45:33.995Z,31.59
2018-08-03T12:47:58.110Z,31.68
2018-08-03T12:50:26.511Z,31.70
2018-08-03T12:52:55.019Z,31.83
2018-08-03T12:55:23.433Z,31.95
2018-08-03T12:57:51.794Z,31.82
2018-08-03T13:00:20.223Z,31.83
2018-08-03T13:02:48.604Z,31.86
2018-08-03T13:05:17.006Z,31.86
2018-08-03T13:07:45.456Z,31.98
2018-08-03T13:10:13.724Z,31.98
2018-08-03T13:12:42.049Z,31.87
2018-08-03T13:15:10.464Z,31.95
2018-08-03T13:17:38.801Z,32.01
2018-08-03T13:20:09.200Z,32.13
2018-08-03T13:22:37.612Z,32.17
2018-08-03T13:25:06.449Z,32.13
2018-08-03T13:27:34.832Z,32.01
2018-08-03T13:30:03.330Z,31.99
2018-08-03T13:32:32.827Z,31.99
2018-08-03T13:35:01.214Z,31.99
2018-08-03T13:37:29.575Z,31.90
2018-08-03T13:39:57.939Z,32.08
2018-08-03T13:42:26.367Z,31.88
2018-08-03T13:44:54.716Z,31.99
2018-08-03T13:47:23.101Z,32.13
2018-08-03T13:49:51.474Z,32.07
2018-08-03T13:52:19.803Z,32.17
2018-08-03T13:54:48.151Z,32.35
2018-08-03T13:57:16.510Z,32.27
2018-08-03T13:59:44.857Z,32.30
2018-08-03T14:02:25.252Z,32.42
2018-08-03T14:04:54.179Z,32.41
2018-08-03T14:07:22.910Z,32.62
2018-08-03T14:09:51.283Z,32.63
2018-08-03T14:12:19.723Z,32.59
2018-08-03T14:14:48.208Z,32.49
2018-08-03T14:17:16.548Z,32.35
2018-08-03T14:19:44.896Z,32.15
2018-08-03T14:22:13.368Z,32.03
2018-08-03T14:24:41.691Z,32.02
2018-08-03T14:27:10.057Z,31.95
2018-08-03T14:29:38.426Z,32.07
2018-08-03T14:32:06.840Z,32.07
2018-08-03T14:34:35.502Z,32.09
2018-08-03T14:37:03.858Z,32.15
2018-08-03T14:39:32.207Z,32.08
2018-08-03T14:42:00.522Z,32.18
2018-08-03T14:44:28.946Z,32.24
2018-08-03T14:46:57.319Z,32.32
2018-08-03T14:49:25.734Z,32.37
2018-08-03T14:51:54.095Z,32.37
2018-08-03T14:54:22.589Z,32.44
2018-08-03T14:56:50.935Z,32.47
2018-08-03T14:59:19.275Z,32.47
2018-08-03T15:01:47.730Z,32.54
2018-08-03T15:04:16.096Z,32.40
2018-08-03T15:06:44.473Z,32.35
2018-08-03T15:09:13.216Z,32.39
2018-08-03T15:11:41.653Z,32.48
2018-08-03T15:14:10.063Z,32.44
2018-08-03T15:16:38.475Z,32.47
2018-08-03T15:19:07.090Z,32.53
2018-08-03T15:21:35.495Z,32.33
2018-08-03T15:24:03.897Z,32.41
2018-08-03T15:26:32.371Z,32.43
2018-08-03T15:29:02.104Z,32.38
2018-08-03T15:31:31.238Z,32.32
2018-08-03T15:33:59.640Z,32.44
2018-08-03T15:36:27.989Z,32.52
2018-08-03T15:38:56.395Z,32.53
2018-08-03T15:41:24.890Z,32.53
2018-08-03T15:43:53.232Z,32.46
2018-08-03T15:46:21.713Z,32.39
2018-08-03T15:48:50.072Z,32.40
2018-08-03T15:51:18.675Z,32.34
2018-08-03T15:53:47.072Z,32.45
2018-08-03T15:56:16.077Z,32.43
2018-08-03T15:58:44.517Z,32.35
2018-08-03T16:01:12.850Z,32.26
2018-08-03T16:03:41.295Z,32.41
2018-08-03T16:06:09.648Z,32.32
2018-08-03T16:08:37.994Z,32.19
2018-08-03T16:11:06.941Z,32.24
2018-08-03T16:13:35.272Z,32.21
2018-08-03T16:16:03.569Z,32.17
2018-08-03T16:18:31.875Z,32.10
2018-08-03T16:21:00.278Z,32.02
2018-08-03T16:23:28.650Z,32.01
2018-08-03T16:25:57.143Z,32.06
2018-08-03T16:28:25.596Z,32.03
2018-08-03T16:30:56.925Z,31.97
2018-08-03T16:33:25.300Z,31.99
2018-08-03T16:35:54.029Z,31.98
2018-08-03T16:38:22.374Z,32.04
2018-08-03T16:40:50.738Z,32.02
2018-08-03T16:43:19.145Z,32.06
2018-08-03T16:45:48.300Z,32.02
2018-08-03T16:48:16.675Z,32.08
2018-08-03T16:50:45.050Z,32.10
2018-08-03T16:53:13.395Z,32.05
2018-08-03T16:55:41.791Z,32.02
2018-08-03T16:58:10.196Z,32.01
2018-08-03T17:00:38.691Z,32.01
2018-08-03T17:03:07.015Z,32.03
2018-08-03T17:05:35.354Z,32.05
2018-08-03T17:08:04.019Z,32.08
2018-08-03T17:10:32.369Z,32.08
2018-08-03T17:13:00.752Z,32.07
2018-08-03T17:15:29.124Z,32.06
2018-08-03T17:17:59.212Z,31.97
2018-08-03T17:20:27.594Z,31.93
2018-08-03T17:22:55.966Z,31.89
2018-08-03T17:25:24.446Z,31.93
2018-08-03T17:27:52.959Z,31.94
2018-08-03T17:30:21.316Z,31.91
2018-08-03T17:32:49.727Z,31.89
2018-08-03T17:35:18.100Z,31.92
2018-08-03T17:37:46.610Z,31.88
2018-08-03T17:40:14.929Z,31.83
2018-08-03T17:42:43.448Z,31.82
2018-08-03T17:45:11.765Z,31.74
2018-08-03T17:47:40.147Z,31.82
2018-08-03T17:50:08.960Z,31.43
2018-08-03T17:52:37.340Z,31.52
2018-08-03T17:55:05.770Z,31.63
2018-08-03T17:57:34.111Z,31.66
2018-08-03T18:00:02.400Z,31.72
2018-08-03T18:02:30.806Z,31.69
2018-08-03T18:04:59.361Z,31.69
2018-08-03T18:07:27.846Z,31.70
2018-08-03T18:09:56.427Z,31.68
2018-08-03T18:12:24.807Z,31.67
2018-08-03T18:14:53.238Z,31.66
2018-08-03T18:17:21.593Z,31.61
2018-08-03T18:19:49.939Z,31.58
2018-08-03T18:22:18.302Z,31.56
2018-08-03T18:24:47.462Z,31.52
2018-08-03T18:27:15.812Z,31.52
2018-08-03T18:29:44.217Z,31.46
2018-08-03T18:32:14.342Z,31.43
2018-08-03T18:34:42.780Z,31.39
2018-08-03T18:37:11.394Z,31.35
2018-08-03T18:42:33.036Z,31.29
2018-08-03T18:45:02.044Z,31.22
2018-08-03T18:47:30.604Z,31.17
2018-08-03T18:49:59.017Z,31.10
2018-08-03T18:52:27.337Z,31.04
2018-08-03T18:54:55.714Z,31.00
2018-08-03T18:57:24.071Z,30.89
2018-08-03T18:59:52.485Z,30.86
2018-08-03T19:02:20.826Z,30.78
2018-08-03T19:04:49.160Z,30.70
2018-08-03T19:07:17.580Z,30.63
2018-08-03T19:09:45.940Z,30.57
2018-08-03T19:12:14.305Z,30.48
2018-08-03T19:14:42.742Z,30.46
2018-08-03T19:17:11.231Z,30.39
2018-08-03T19:19:39.604Z,30.32
2018-08-03T19:22:08.129Z,30.26
2018-08-03T19:24:36.567Z,30.19
2018-08-03T19:27:05.215Z,30.11
2018-08-03T19:29:34.322Z,30.03
2018-08-03T19:32:03.992Z,29.92
2018-08-03T19:34:32.482Z,29.81
2018-08-03T19:37:00.906Z,29.82
2018-08-03T19:39:29.248Z,29.75
2018-08-03T19:41:58.264Z,29.69
2018-08-03T19:44:26.738Z,29.64
2018-08-03T19:46:55.195Z,29.56
2018-08-03T19:49:24.652Z,29.52
2018-08-03T19:51:55.863Z,29.46
2018-08-03T19:54:25.462Z,29.39
2018-08-03T19:56:54.278Z,29.34
2018-08-03T19:59:24.312Z,29.23
2018-08-03T20:01:52.743Z,29.21
2018-08-03T20:04:21.281Z,29.20
2018-08-03T20:06:49.820Z,29.13
2018-08-03T20:09:20.049Z,29.07
2018-08-03T20:11:48.503Z,29.00
2018-08-03T20:14:17.946Z,28.91
2018-08-03T20:16:46.381Z,28.80
2018-08-03T20:19:14.760Z,28.74
2018-08-03T20:21:43.140Z,28.73
2018-08-03T20:24:11.768Z,28.68
2018-08-03T20:26:40.924Z,28.61
2018-08-03T20:29:09.636Z,28.64
2018-08-03T20:31:38.102Z,28.68
2018-08-03T20:34:06.684Z,28.55
2018-08-03T20:36:36.028Z,28.55
2018-08-03T20:39:08.734Z,28.49
2018-08-03T20:41:37.250Z,28.30
2018-08-03T20:44:05.727Z,28.29
2018-08-03T20:46:34.341Z,28.10
2018-08-03T20:49:02.759Z,27.99
2018-08-03T20:51:31.178Z,27.91
2018-08-03T20:54:00.089Z,27.90
2018-08-03T20:56:28.925Z,27.78
2018-08-03T20:58:57.239Z,27.76
2018-08-03T21:01:25.617Z,27.72
2018-08-03T21:03:53.946Z,27.75
2018-08-03T21:06:22.307Z,27.69
2018-08-03T21:08:50.810Z,27.54
2018-08-03T21:11:19.208Z,27.38
2018-08-03T21:13:47.717Z,27.33
2018-08-03T21:16:16.129Z,27.18
2018-08-03T21:18:44.444Z,27.16
2018-08-03T21:21:12.904Z,27.20
2018-08-03T21:23:42.427Z,27.15
2018-08-03T21:26:10.771Z,27.15
2018-08-03T21:28:39.110Z,27.16
2018-08-03T21:31:07.536Z,27.05
2018-08-03T21:33:35.865Z,27.04
2018-08-03T21:36:04.225Z,27.04
2018-08-03T21:38:32.566Z,26.99
2018-08-03T21:41:00.902Z,26.93
2018-08-03T21:43:29.266Z,26.85
2018-08-03T21:45:57.602Z,26.73
2018-08-03T21:48:25.971Z,26.66
2018-08-03T21:50:54.361Z,26.66
2018-08-03T21:53:23.601Z,26.65
2018-08-03T21:55:52.093Z,26.42
2018-08-03T21:58:20.495Z,26.38
2018-08-03T22:00:48.964Z,26.30
2018-08-03T22:03:17.327Z,26.08
2018-08-03T22:05:45.703Z,26.04
2018-08-03T22:08:14.185Z,26.08
2018-08-03T22:10:42.591Z,26.26
2018-08-03T22:13:10.910Z,26.26
2018-08-03T22:15:39.548Z,26.10
2018-08-03T22:18:07.903Z,26.17
2018-08-03T22:20:36.266Z,26.08
2018-08-03T22:23:04.680Z,26.01
2018-08-03T22:25:32.983Z,25.99
2018-08-03T22:28:01.317Z,25.97
2018-08-03T22:30:29.753Z,25.92
2018-08-03T22:32:58.180Z,25.83
2018-08-03T22:35:26.495Z,25.89
2018-08-03T22:37:54.845Z,25.85
2018-08-03T22:40:23.223Z,25.83
2018-08-03T22:42:51.916Z,25.79
2018-08-03T22:45:20.268Z,25.77
2018-08-03T22:47:48.669Z,25.72
2018-08-03T22:50:16.998Z,25.64
2018-08-03T22:52:45.347Z,25.58
2018-08-03T22:55:16.666Z,25.46
2018-08-03T22:57:44.983Z,25.52
2018-08-03T23:00:13.312Z,25.46
2018-08-03T23:02:41.681Z,25.33
2018-08-03T23:05:10.051Z,25.26
2018-08-03T23:07:38.413Z,25.09
2018-08-03T23:10:07.054Z,24.94
2018-08-03T23:12:35.360Z,24.86
2018-08-03T23:15:03.807Z,24.71
2018-08-03T23:17:32.162Z,24.68
2018-08-03T23:20:00.492Z,24.60
2018-08-03T23:22:28.845Z,24.64
2018-08-03T23:24:57.260Z,24.52
2018-08-03T23:27:25.605Z,24.45
2018-08-03T23:29:53.978Z,24.41
2018-08-03T23:32:22.341Z,24.54
2018-08-03T23:34:50.739Z,24.64
2018-08-03T23:37:19.043Z,24.58
2018-08-03T23:39:47.465Z,24.61
2018-08-03T23:42:15.790Z,24.60
2018-08-03T23:44:44.167Z,24.53
2018-08-03T23:47:12.464Z,24.45
2018-08-03T23:49:41.197Z,24.45
2018-08-03T23:52:09.943Z,24.41
2018-08-03T23:54:38.325Z,24.40
2018-08-03T23:57:06.671Z,24.34
2018-08-03T23:59:35.032Z,24.20
